Aviation Digital Data Service (ADDS)

Output produced by METARs form (1629 UTC 20 July 2017)
found at http://aviationweather.gov/adds/metars/
 
KPVD 201507Z 2015/2112 27009KT P6SM SCT050 
     FM201800 20012KT P6SM SCT050 
     FM210000 23007KT P6SM SCT050 
     FM210300 23005KT P6SM BKN080 
     FM210600 28010KT P6SM VCSH BKN070 
     FM210900 26004KT P6SM SCT060